Pinsk, Belarus
Current Conditions -  °F | °C
As of 5:00 PM on Sunday 25 Jan 2015 (Local Time) from UKLR Reporting Station
Moderate Snow Moderate Snow  
Wind Chill: 25°   Ceiling: 200
Heat Index: 30°   Visibility: 1mi
Dew Point: 28°   Wind: 4mph
Humidity: 93%   Direction: 100°E
Pressure: 30.03"   Gusts: NA
Location:  52.12°N, 26.1°E
Report Text: UKLR 251500Z 10002MPS 1600 SN BR OVC002 M01/M02 Q1017 NOSIG
Loading
Personal Weather Stations






























Interactive Weather Map New forecast layout! Learn more

10-Day Weather Forecast

Advertisements
Track Severe Weather on mobile